Time;durP1;ratioP1;P1;durP2;ratioP2;P2;SDS_P1;SDS_P2;PMS_P1;PMS_P2;Temp;Humidity;BMP_temperature;BMP_pressure;BME280_temperature;BME280_humidity;BME280_pressure;Samples;Min_cycle;Max_cycle;Signal;HPM_P1;HPM_P2
2022/12/29 00:02:16;;;;;;;5.70;4.00;;;8.70;99.90;;;;;;5013021;28;20440;-79
2022/12/29 00:04:42;;;;;;;7.20;4.25;;;8.80;99.90;;;;;;5012531;28;20233;-79
2022/12/29 00:07:08;;;;;;;6.15;4.43;;;8.70;99.90;;;;;;4999616;28;20641;-79
2022/12/29 00:09:34;;;;;;;5.17;4.43;;;9.20;99.90;;;;;;5002424;28;20274;-79
2022/12/29 00:12:01;;;;;;;6.35;4.30;;;8.80;99.90;;;;;;5013361;28;20795;-79
2022/12/29 00:17:11;;;;;;;5.72;4.25;;;8.80;99.90;;;;;;5011394;28;20225;-78
2022/12/29 00:36:17;;;;;;;4.10;3.30;;;8.90;99.90;;;;;;5010674;28;20186;-78
2022/12/29 00:44:17;;;;;;;3.75;3.20;;;8.90;99.90;;;;;;5011429;28;20218;-78
2022/12/29 00:46:43;;;;;;;5.13;3.37;;;9.50;99.90;;;;;;5012456;28;20191;-78
2022/12/29 00:52:01;;;;;;;4.22;3.63;;;9.10;99.90;;;;;;5011619;28;20295;-78
2022/12/29 00:54:28;;;;;;;4.80;3.75;;;8.90;99.90;;;;;;5008598;28;20215;-79
2022/12/29 00:56:54;;;;;;;4.20;3.67;;;8.70;99.90;;;;;;5011548;28;20183;-79
2022/12/29 00:59:20;;;;;;;5.20;4.00;;;9.00;99.90;;;;;;5011907;28;20847;-79
2022/12/29 01:01:47;;;;;;;4.10;3.47;;;9.30;99.90;;;;;;5018500;28;20335;-79
2022/12/29 01:04:13;;;;;;;5.32;3.67;;;9.00;99.90;;;;;;5006456;28;20277;-78
2022/12/29 01:06:40;;;;;;;3.80;2.83;;;9.10;99.90;;;;;;5011962;28;20211;-78
2022/12/29 01:11:51;;;;;;;3.50;2.65;;;9.40;99.90;;;;;;5012491;28;20567;-78
2022/12/29 01:14:18;;;;;;;2.73;2.40;;;9.50;99.90;;;;;;5011777;28;20192;-79
2022/12/29 01:16:44;;;;;;;3.95;2.78;;;9.50;99.90;;;;;;5012028;28;20207;-78
2022/12/29 01:19:10;;;;;;;4.65;2.55;;;9.80;99.90;;;;;;5008207;28;20174;-79
2022/12/29 01:21:35;;;;;;;3.20;2.90;;;9.30;99.90;;;;;;5012243;28;20592;-78
2022/12/29 01:24:01;;;;;;;3.37;2.20;;;9.30;99.90;;;;;;5017356;28;20207;-79
2022/12/29 01:26:26;;;;;;;2.60;2.23;;;9.30;99.90;;;;;;5003407;28;20602;-78
2022/12/29 01:28:52;;;;;;;4.13;2.70;;;9.40;99.90;;;;;;5011575;28;20416;-79
2022/12/29 01:31:17;;;;;;;3.27;2.47;;;9.60;99.90;;;;;;5011377;28;20234;-79
2022/12/29 01:33:43;;;;;;;2.23;2.03;;;10.10;99.90;;;;;;5005539;28;20215;-79
2022/12/29 01:36:15;;;;;;;3.20;2.90;;;10.70;99.90;;;;;;5010469;28;20192;-79
2022/12/29 01:38:41;;;;;;;2.95;2.65;;;9.90;99.90;;;;;;5008540;28;20434;-79
2022/12/29 01:41:08;;;;;;;3.40;2.45;;;10.10;99.90;;;;;;5007220;28;20230;-78
2022/12/29 01:43:40;;;;;;;3.70;2.70;;;9.80;99.90;;;;;;5011007;28;20188;-79
2022/12/29 01:46:41;;;;;;;3.33;2.40;;;10.30;99.90;;;;;;5012002;28;20271;-78
2022/12/29 01:49:26;;;;;;;3.25;2.60;;;9.70;99.90;;;;;;5000784;28;20630;-79
2022/12/29 01:52:03;;;;;;;2.72;2.53;;;9.60;99.90;;;;;;5011062;28;20207;-79
2022/12/29 01:54:43;;;;;;;3.35;2.58;;;9.30;99.90;;;;;;5006850;28;20263;-78
2022/12/29 01:57:13;;;;;;;2.78;2.30;;;9.60;99.90;;;;;;5011062;28;20655;-79
2022/12/29 01:59:45;;;;;;;3.45;2.72;;;9.60;99.90;;;;;;5010803;28;20211;-79
2022/12/29 02:02:11;;;;;;;3.10;2.47;;;9.80;99.90;;;;;;5010814;28;20252;-78
2022/12/29 02:04:43;;;;;;;4.05;2.40;;;9.90;99.90;;;;;;5007745;28;20213;-79
2022/12/29 02:07:16;;;;;;;2.92;2.65;;;9.60;99.90;;;;;;5010875;28;20247;-79
2022/12/29 02:09:43;;;;;;;3.00;2.25;;;10.00;99.90;;;;;;4999348;28;20263;-79
2022/12/29 02:12:09;;;;;;;3.67;2.47;;;9.80;99.90;;;;;;5016911;28;20218;-78
2022/12/29 02:14:35;;;;;;;2.80;2.60;;;9.70;99.90;;;;;;5009757;28;20226;-78
2022/12/29 02:17:20;;;;;;;4.73;2.20;;;9.50;99.90;;;;;;5010240;28;20212;-78
2022/12/29 02:20:10;;;;;;;3.90;2.63;;;9.80;99.90;;;;;;4997758;28;20629;-78
2022/12/29 02:22:56;;;;;;;3.38;2.33;;;9.80;99.90;;;;;;5014019;28;20226;-79
2022/12/29 02:25:50;;;;;;;2.95;2.38;;;9.70;99.90;;;;;;5001541;28;20697;-78
2022/12/29 02:28:53;;;;;;;3.20;2.90;;;9.60;99.90;;;;;;5009842;28;20195;-79
2022/12/29 02:31:43;;;;;;;3.10;2.70;;;9.50;99.90;;;;;;5002284;28;20198;-79
2022/12/29 02:34:44;;;;;;;4.38;3.40;;;9.90;99.90;;;;;;4992672;28;20200;-79
2022/12/29 02:37:39;;;;;;;3.15;2.85;;;9.40;99.90;;;;;;5009973;28;20234;-79
2022/12/29 02:40:16;;;;;;;3.80;2.90;;;9.20;99.90;;;;;;5000540;28;20573;-78
2022/12/29 02:43:06;;;;;;;1.50;1.40;;;9.20;99.90;;;;;;5010810;28;20211;-79
2022/12/29 02:45:53;;;;;;;3.35;2.40;;;9.60;99.90;;;;;;5002158;28;20381;-78
2022/12/29 02:48:29;;;;;;;3.03;2.63;;;9.50;99.90;;;;;;5009142;28;20175;-78
2022/12/29 02:50:59;;;;;;;4.32;3.30;;;9.50;99.90;;;;;;5011677;28;20645;-79
2022/12/29 02:56:24;;;;;;;4.88;2.83;;;9.30;99.90;;;;;;4997802;28;20326;-79
2022/12/29 02:58:49;;;;;;;3.90;2.90;;;9.30;99.90;;;;;;5010154;28;20271;-79
2022/12/29 03:01:39;;;;;;;3.47;2.90;;;9.30;99.90;;;;;;5009483;28;20209;-79
2022/12/29 03:04:22;;;;;;;5.78;3.72;;;9.40;99.90;;;;;;5002596;28;20207;-78
2022/12/29 03:07:25;;;;;;;3.63;2.80;;;9.40;99.90;;;;;;5011023;28;20175;-79
2022/12/29 03:10:02;;;;;;;4.47;3.05;;;9.20;99.90;;;;;;5007868;28;20246;-79
2022/12/29 03:18:43;;;;;;;4.28;2.85;;;9.20;99.90;;;;;;5005919;28;20670;-78
2022/12/29 03:21:20;;;;;;;3.70;2.90;;;9.00;99.90;;;;;;5014252;28;20249;-79
2022/12/29 03:23:49;;;;;;;4.50;2.47;;;9.20;99.90;;;;;;5011743;28;20187;-78
2022/12/29 03:26:18;;;;;;;5.95;3.90;;;9.60;99.90;;;;;;5003929;28;20183;-79
2022/12/29 03:28:55;;;;;;;7.55;4.95;;;9.70;99.90;;;;;;5014076;28;20183;-78
2022/12/29 03:31:23;;;;;;;3.00;2.53;;;9.20;99.90;;;;;;5014593;28;20194;-79
2022/12/29 03:33:49;;;;;;;1.63;1.50;;;9.30;99.90;;;;;;5007349;28;20664;-79
2022/12/29 03:36:27;;;;;;;1.90;1.00;;;9.40;99.90;;;;;;5014655;28;20217;-79
2022/12/29 03:39:03;;;;;;;1.88;1.45;;;9.70;99.90;;;;;;5011181;28;20191;-78
2022/12/29 03:41:31;;;;;;;1.60;1.20;;;9.80;99.90;;;;;;5008227;28;20230;-79
2022/12/29 03:43:57;;;;;;;1.30;1.20;;;10.40;99.90;;;;;;5013727;28;20263;-78
2022/12/29 03:46:22;;;;;;;1.80;1.60;;;10.50;99.90;;;;;;5014162;28;20217;-79
2022/12/29 03:48:48;;;;;;;1.20;1.10;;;11.00;99.90;;;;;;5010518;28;20266;-79
2022/12/29 03:51:14;;;;;;;1.43;1.17;;;10.70;99.90;;;;;;5013486;28;20583;-79
2022/12/29 03:53:39;;;;;;;1.77;1.23;;;11.00;99.90;;;;;;5012701;28;20217;-79
2022/12/29 03:56:05;;;;;;;2.03;1.40;;;11.20;99.90;;;;;;5010770;28;20220;-79
2022/12/29 03:58:30;;;;;;;1.90;1.03;;;11.50;99.90;;;;;;5012028;28;20662;-77
2022/12/29 04:00:56;;;;;;;1.60;1.40;;;11.50;99.70;;;;;;5012195;28;20268;-77
2022/12/29 04:03:22;;;;;;;1.20;1.10;;;11.60;99.30;;;;;;5008719;28;20220;-77
2022/12/29 04:05:47;;;;;;;1.37;1.17;;;12.20;99.30;;;;;;5013190;28;20256;-78
2022/12/29 04:08:13;;;;;;;1.50;1.30;;;11.80;98.80;;;;;;5012875;28;20185;-78
2022/12/29 04:10:38;;;;;;;3.13;1.30;;;12.00;98.70;;;;;;5020594;28;20218;-78
2022/12/29 04:13:04;;;;;;;2.40;1.00;;;11.90;98.60;;;;;;5013092;28;20207;-78
2022/12/29 04:15:29;;;;;;;2.00;1.20;;;11.70;98.40;;;;;;5012338;28;20182;-78
2022/12/29 04:17:55;;;;;;;1.20;1.10;;;12.20;98.60;;;;;;5005701;28;20242;-78
2022/12/29 04:23:06;;;;;;;1.88;1.40;;;12.00;98.60;;;;;;5012658;28;20285;-78
2022/12/29 04:25:33;;;;;;;2.55;1.52;;;11.80;98.50;;;;;;5001072;28;20214;-78
2022/12/29 04:27:59;;;;;;;4.53;1.50;;;11.90;98.70;;;;;;5013140;28;20208;-79
2022/12/29 04:30:24;;;;;;;1.85;1.15;;;11.80;98.70;;;;;;5012290;28;20640;-79
2022/12/29 04:32:50;;;;;;;1.77;1.40;;;12.00;98.90;;;;;;5011368;28;20211;-79
2022/12/29 04:35:16;;;;;;;2.80;1.50;;;12.00;98.90;;;;;;5000979;28;20668;-78
2022/12/29 04:37:41;;;;;;;2.10;1.67;;;12.40;99.30;;;;;;5015258;28;20227;-77
2022/12/29 04:40:07;;;;;;;1.90;1.50;;;12.10;99.20;;;;;;5003879;28;20703;-78
2022/12/29 04:42:33;;;;;;;2.20;1.90;;;12.00;99.20;;;;;;5012436;28;20217;-79
2022/12/29 04:44:58;;;;;;;2.77;1.50;;;12.30;99.40;;;;;;5013261;28;20683;-78
2022/12/29 04:47:24;;;;;;;2.40;1.40;;;11.90;99.30;;;;;;5003157;28;20191;-78
2022/12/29 04:49:49;;;;;;;2.33;2.13;;;12.20;99.60;;;;;;5012157;28;20183;-79
2022/12/29 04:52:15;;;;;;;2.23;1.57;;;11.90;99.50;;;;;;5012166;28;20687;-78
2022/12/29 04:54:41;;;;;;;1.40;1.20;;;11.60;99.50;;;;;;5008306;28;20201;-77
2022/12/29 04:57:06;;;;;;;3.23;1.43;;;12.30;99.90;;;;;;5011800;28;20192;-78
2022/12/29 04:59:32;;;;;;;2.03;1.60;;;12.00;99.80;;;;;;5012306;28;20189;-78
2022/12/29 05:01:57;;;;;;;2.43;1.40;;;11.90;99.80;;;;;;5015194;28;20234;-78
2022/12/29 05:04:23;;;;;;;2.53;1.47;;;12.30;99.90;;;;;;5009184;28;20206;-78
2022/12/29 05:06:49;;;;;;;2.70;1.70;;;12.10;99.90;;;;;;5001894;28;20248;-79
2022/12/29 05:09:15;;;;;;;2.22;1.30;;;12.30;99.90;;;;;;5010455;28;20182;-78
2022/12/29 05:11:40;;;;;;;2.80;1.70;;;12.50;99.90;;;;;;5009112;28;20309;-79
2022/12/29 05:14:06;;;;;;;2.07;1.87;;;12.30;99.90;;;;;;5017856;28;20599;-78
2022/12/29 05:16:31;;;;;;;1.50;1.40;;;12.20;99.80;;;;;;5011511;28;20219;-77
2022/12/29 05:18:57;;;;;;;1.63;1.53;;;11.90;99.70;;;;;;5012223;28;20212;-78
2022/12/29 05:21:22;;;;;;;1.60;1.50;;;12.00;99.80;;;;;;5003757;28;20207;-77
2022/12/29 05:23:47;;;;;;;1.50;1.40;;;12.20;99.90;;;;;;5009999;28;20193;-78
2022/12/29 05:26:13;;;;;;;2.30;1.33;;;12.20;99.80;;;;;;5012320;28;20210;-79
2022/12/29 05:28:38;;;;;;;1.90;1.43;;;12.30;99.80;;;;;;5011428;28;20713;-79
2022/12/29 05:31:04;;;;;;;1.77;1.60;;;12.30;99.80;;;;;;5010954;28;20238;-80
2022/12/29 05:33:30;;;;;;;1.60;1.33;;;12.10;99.70;;;;;;5003645;28;20221;-79
2022/12/29 05:35:55;;;;;;;1.87;1.63;;;12.00;99.60;;;;;;5009807;28;20199;-78
2022/12/29 05:38:21;;;;;;;1.27;1.17;;;12.20;99.70;;;;;;5005389;28;20214;-77
2022/12/29 05:40:46;;;;;;;1.50;1.40;;;12.30;99.40;;;;;;5008875;28;20345;-78
2022/12/29 05:43:12;;;;;;;2.20;1.50;;;12.10;99.70;;;;;;5011102;28;20633;-79
2022/12/29 05:45:37;;;;;;;2.00;1.43;;;12.10;99.70;;;;;;5010785;28;20755;-79
2022/12/29 05:48:03;;;;;;;1.70;1.53;;;12.10;99.70;;;;;;5008008;28;20623;-79
2022/12/29 05:50:29;;;;;;;3.57;1.63;;;12.20;99.80;;;;;;5011442;28;20214;-79
2022/12/29 05:52:54;;;;;;;2.80;1.70;;;12.10;99.70;;;;;;5011335;28;20460;-78
2022/12/29 05:55:20;;;;;;;2.27;1.50;;;12.10;99.50;;;;;;5007075;28;20187;-78
2022/12/29 05:57:45;;;;;;;2.00;1.50;;;12.40;99.60;;;;;;5004357;28;20209;-78
2022/12/29 06:00:11;;;;;;;1.50;1.23;;;12.20;99.30;;;;;;5004133;28;20187;-79
2022/12/29 06:02:37;;;;;;;1.67;1.30;;;12.30;99.30;;;;;;5008382;28;20946;-79
2022/12/29 06:05:03;;;;;;;2.17;1.37;;;12.50;99.30;;;;;;5009885;28;20293;-78
2022/12/29 06:07:28;;;;;;;1.47;1.37;;;12.50;99.20;;;;;;5010474;28;20189;-78
2022/12/29 06:09:54;;;;;;;1.13;1.00;;;12.30;99.20;;;;;;5010874;28;20198;-78
2022/12/29 06:12:19;;;;;;;2.13;1.60;;;12.50;98.90;;;;;;5016223;28;20213;-79
2022/12/29 06:14:45;;;;;;;1.37;1.23;;;12.60;98.80;;;;;;5009567;28;20186;-78
2022/12/29 06:17:10;;;;;;;1.77;1.63;;;12.50;98.70;;;;;;5008607;28;20233;-78
2022/12/29 06:19:36;;;;;;;2.10;1.97;;;12.30;98.50;;;;;;5008265;28;20193;-78
2022/12/29 06:22:01;;;;;;;1.60;1.20;;;12.60;98.80;;;;;;5010676;28;20202;-78
2022/12/29 06:24:27;;;;;;;1.30;1.20;;;12.60;98.60;;;;;;5003236;28;20257;-78
2022/12/29 06:26:52;;;;;;;1.93;1.30;;;12.10;98.40;;;;;;5007216;28;20190;-78
2022/12/29 06:29:20;;;;;;;3.10;1.90;;;12.20;98.50;;;;;;5002567;28;20233;-78
2022/12/29 06:31:46;;;;;;;1.98;1.45;;;12.60;98.70;;;;;;5010293;28;20289;-78
2022/12/29 06:34:12;;;;;;;2.00;1.30;;;12.30;98.50;;;;;;5009278;28;20286;-78
2022/12/29 06:36:38;;;;;;;2.85;1.60;;;12.30;98.30;;;;;;5012068;28;20553;-78
2022/12/29 06:39:04;;;;;;;1.87;1.30;;;12.30;98.20;;;;;;5005158;28;20269;-78
2022/12/29 06:41:29;;;;;;;1.90;1.47;;;12.30;98.00;;;;;;5008097;28;20205;-79
2022/12/29 06:43:55;;;;;;;1.70;1.43;;;12.10;97.90;;;;;;5008987;28;20186;-79
2022/12/29 06:46:20;;;;;;;1.40;1.30;;;12.40;97.90;;;;;;5004846;28;20725;-79
2022/12/29 06:48:46;;;;;;;1.50;1.23;;;12.50;97.90;;;;;;5010274;28;20210;-78
2022/12/29 06:51:11;;;;;;;1.90;1.27;;;12.00;97.80;;;;;;5010234;28;20280;-78
2022/12/29 06:53:37;;;;;;;1.60;1.50;;;12.30;97.80;;;;;;5002248;28;20185;-79
2022/12/29 06:56:03;;;;;;;1.43;1.33;;;12.00;97.60;;;;;;5005492;28;20560;-78
2022/12/29 06:58:28;;;;;;;1.70;1.60;;;12.00;97.60;;;;;;5006076;28;20193;-78
2022/12/29 07:00:54;;;;;;;1.10;1.00;;;12.00;97.20;;;;;;5009057;28;20633;-78
2022/12/29 07:03:19;;;;;;;2.23;1.53;;;12.10;97.60;;;;;;5010005;28;20205;-78
2022/12/29 07:05:45;;;;;;;2.43;1.90;;;11.90;97.50;;;;;;5009919;28;20221;-78
2022/12/29 07:08:10;;;;;;;7.37;5.40;;;12.10;97.60;;;;;;5002561;28;20197;-78
2022/12/29 07:10:36;;;;;;;2.33;1.80;;;12.40;97.80;;;;;;5006775;28;20181;-78
2022/12/29 07:13:02;;;;;;;1.60;1.50;;;11.80;97.50;;;;;;5009880;28;20285;-78
2022/12/29 07:15:27;;;;;;;1.97;1.87;;;12.40;97.80;;;;;;5009146;28;20180;-78
2022/12/29 07:17:53;;;;;;;2.37;1.70;;;11.80;98.00;;;;;;5007238;28;20205;-78
2022/12/29 07:20:18;;;;;;;5.40;2.77;;;11.80;97.70;;;;;;5008801;28;20566;-78
2022/12/29 07:22:44;;;;;;;3.80;1.43;;;11.80;97.80;;;;;;5009926;28;20211;-79
2022/12/29 07:25:09;;;;;;;2.60;2.27;;;12.30;98.10;;;;;;4998205;28;20211;-79
2022/12/29 07:27:35;;;;;;;3.37;3.07;;;11.80;97.80;;;;;;5009689;28;20205;-79
2022/12/29 07:30:00;;;;;;;2.80;1.80;;;11.80;97.80;;;;;;5009803;28;20189;-78
2022/12/29 07:32:26;;;;;;;1.80;1.70;;;11.70;97.80;;;;;;5003746;28;20293;-79
2022/12/29 07:34:52;;;;;;;1.90;1.73;;;12.20;98.20;;;;;;5009880;28;20617;-79
2022/12/29 07:37:17;;;;;;;2.40;1.83;;;11.70;98.00;;;;;;5009546;28;20194;-78
2022/12/29 07:39:43;;;;;;;2.33;2.13;;;12.10;98.30;;;;;;5000672;28;20194;-78
2022/12/29 07:42:08;;;;;;;1.50;1.40;;;11.50;98.10;;;;;;5009552;28;20214;-78
2022/12/29 07:44:34;;;;;;;2.90;2.63;;;11.80;98.20;;;;;;5009008;28;20218;-78
2022/12/29 07:46:59;;;;;;;1.90;1.57;;;11.80;98.30;;;;;;5008170;28;20200;-79
2022/12/29 07:49:25;;;;;;;2.80;2.00;;;11.80;98.20;;;;;;5009963;28;20201;-78
2022/12/29 07:51:50;;;;;;;2.23;1.97;;;12.00;98.30;;;;;;5009884;28;20260;-80
2022/12/29 07:54:18;;;;;;;7.90;2.13;;;11.80;98.30;;;;;;5007938;28;20191;-79
2022/12/29 07:56:44;;;;;;;1.60;1.33;;;11.80;98.30;;;;;;5012812;28;20185;-78
2022/12/29 07:59:09;;;;;;;1.80;1.55;;;12.00;98.20;;;;;;5012920;28;20197;-78
2022/12/29 08:01:35;;;;;;;1.53;1.23;;;12.10;98.20;;;;;;5012772;28;20249;-78
2022/12/29 08:04:00;;;;;;;2.13;1.90;;;11.90;98.00;;;;;;5009905;28;20190;-79
2022/12/29 08:06:26;;;;;;;1.73;1.63;;;12.10;98.00;;;;;;5012848;28;20640;-79
2022/12/29 08:08:51;;;;;;;3.63;1.80;;;12.10;98.00;;;;;;5011465;28;20210;-79
2022/12/29 08:11:17;;;;;;;1.60;1.50;;;12.10;98.00;;;;;;5012787;28;20583;-79
2022/12/29 08:13:42;;;;;;;1.40;1.30;;;12.50;98.20;;;;;;5012896;28;20189;-78
2022/12/29 08:16:08;;;;;;;2.50;1.40;;;12.10;97.80;;;;;;5012681;28;20198;-78
2022/12/29 08:18:34;;;;;;;2.90;1.60;;;12.40;98.00;;;;;;5006028;28;20218;-78
2022/12/29 08:21:04;;;;;;;3.10;1.60;;;12.30;97.30;;;;;;5012857;28;20570;-79
2022/12/29 08:23:29;;;;;;;4.32;3.03;;;12.40;97.70;;;;;;5012307;28;20516;-79
2022/12/29 08:26:00;;;;;;;5.77;2.40;;;12.40;98.10;;;;;;5008953;28;20298;-78
2022/12/29 08:28:26;;;;;;;3.90;2.13;;;12.40;97.70;;;;;;5011135;28;20416;-78
2022/12/29 08:30:52;;;;;;;2.25;1.95;;;12.50;97.80;;;;;;5012288;28;20186;-78
2022/12/29 08:33:17;;;;;;;5.23;1.90;;;12.60;98.20;;;;;;5015020;28;20187;-78
2022/12/29 08:35:43;;;;;;;2.80;1.43;;;12.60;97.60;;;;;;5011479;28;20448;-78
2022/12/29 08:38:11;;;;;;;1.70;1.60;;;13.20;97.90;;;;;;5012041;28;20187;-79
2022/12/29 08:40:36;;;;;;;1.85;1.73;;;13.20;97.90;;;;;;5009651;28;20236;-79
2022/12/29 08:43:02;;;;;;;1.73;1.63;;;12.80;97.60;;;;;;5011429;28;20699;-79
2022/12/29 08:45:27;;;;;;;2.60;1.50;;;13.20;97.80;;;;;;5019500;28;20213;-79
2022/12/29 08:47:53;;;;;;;1.93;1.63;;;13.00;97.40;;;;;;5015399;28;20226;-80
2022/12/29 08:50:18;;;;;;;3.20;1.60;;;12.80;97.00;;;;;;5010479;28;20217;-79
2022/12/29 08:52:44;;;;;;;2.43;2.23;;;12.90;97.10;;;;;;5011620;28;20207;-79
2022/12/29 08:55:09;;;;;;;2.30;1.53;;;13.20;97.20;;;;;;5007409;28;20573;-79
2022/12/29 08:57:35;;;;;;;2.00;1.43;;;13.00;97.10;;;;;;5011747;28;20186;-79
2022/12/29 09:00:01;;;;;;;3.37;1.70;;;13.30;97.40;;;;;;5012245;28;20279;-79
2022/12/29 09:02:26;;;;;;;2.20;1.50;;;13.10;97.30;;;;;;5004840;28;20637;-78
2022/12/29 09:04:52;;;;;;;1.77;1.50;;;13.30;97.10;;;;;;5011259;28;20454;-79
2022/12/29 09:07:17;;;;;;;2.00;1.23;;;12.80;97.00;;;;;;5011571;28;20175;-78
2022/12/29 09:09:43;;;;;;;2.10;1.27;;;13.00;97.00;;;;;;5009855;28;20202;-78
2022/12/29 09:12:08;;;;;;;2.43;1.53;;;13.10;97.00;;;;;;5011364;28;20199;-78
2022/12/29 09:14:34;;;;;;;3.43;1.60;;;12.90;96.80;;;;;;5011391;28;20191;-78
2022/12/29 09:19:43;;;;;;;2.10;2.00;;;12.90;96.80;;;;;;5010543;28;20624;-78
2022/12/29 09:22:09;;;;;;;2.80;1.90;;;13.40;97.00;;;;;;5010896;28;20234;-78
2022/12/29 09:24:34;;;;;;;1.80;1.33;;;13.40;96.70;;;;;;5003734;28;20235;-78
2022/12/29 09:27:00;;;;;;;1.50;1.40;;;13.50;96.10;;;;;;5007840;28;20257;-78
2022/12/29 09:29:25;;;;;;;2.63;1.30;;;13.50;96.10;;;;;;5011021;28;20293;-78
2022/12/29 09:31:51;;;;;;;2.70;1.40;;;13.60;96.00;;;;;;5012093;28;20699;-79
2022/12/29 09:34:16;;;;;;;2.10;1.80;;;13.70;95.90;;;;;;5006128;28;20237;-78
2022/12/29 09:36:42;;;;;;;1.83;1.37;;;13.60;95.80;;;;;;5010619;28;20222;-79
2022/12/29 09:39:08;;;;;;;2.07;1.90;;;13.80;95.70;;;;;;5004995;28;20180;-79
2022/12/29 09:41:47;;;;;;;2.00;1.40;;;13.80;95.80;;;;;;5006981;28;20285;-79
2022/12/29 09:44:25;;;;;;;2.70;1.50;;;13.60;95.70;;;;;;5010975;28;20671;-79
2022/12/29 09:46:53;;;;;;;2.10;1.25;;;13.90;95.70;;;;;;5010464;28;20179;-79
2022/12/29 09:49:34;;;;;;;5.05;1.80;;;13.80;95.30;;;;;;5007794;28;20183;-79
2022/12/29 09:52:13;;;;;;;4.60;1.23;;;14.00;95.30;;;;;;5010737;28;20256;-78
2022/12/29 09:54:52;;;;;;;2.80;1.77;;;14.20;95.40;;;;;;5005260;28;20201;-79
2022/12/29 09:57:56;;;;;;;1.85;1.75;;;14.00;95.10;;;;;;5010507;28;20244;-79
2022/12/29 10:00:27;;;;;;;1.85;1.75;;;14.20;94.90;;;;;;4982055;28;20198;-79
2022/12/29 10:03:02;;;;;;;1.50;1.40;;;14.10;94.70;;;;;;5010674;28;20778;-78
2022/12/29 10:05:41;;;;;;;2.05;1.67;;;14.10;94.60;;;;;;5010348;28;20242;-79
2022/12/29 10:08:25;;;;;;;3.40;3.10;;;13.90;94.70;;;;;;5004415;28;20659;-79
2022/12/29 10:10:56;;;;;;;2.17;1.35;;;14.30;95.00;;;;;;5009201;28;20556;-79
2022/12/29 10:13:48;;;;;;;1.40;1.30;;;14.10;94.90;;;;;;5011121;28;20175;-79
2022/12/29 10:16:29;;;;;;;1.30;1.20;;;14.20;95.20;;;;;;4997767;28;20186;-79
2022/12/29 10:19:34;;;;;;;2.78;1.35;;;14.30;95.20;;;;;;5008861;28;20190;-78
2022/12/29 10:22:20;;;;;;;3.33;1.73;;;14.10;94.80;;;;;;5011342;28;20341;-78
2022/12/29 10:24:49;;;;;;;1.98;1.77;;;14.80;95.20;;;;;;5013762;28;20276;-78
2022/12/29 10:27:16;;;;;;;2.28;1.52;;;13.90;94.60;;;;;;5010195;28;20175;-78
2022/12/29 10:29:58;;;;;;;1.58;1.48;;;14.30;94.80;;;;;;5010293;28;20174;-79
2022/12/29 10:32:36;;;;;;;2.55;1.40;;;14.50;94.90;;;;;;5008994;28;20203;-78
2022/12/29 10:35:12;;;;;;;3.78;1.50;;;14.50;95.10;;;;;;4998345;28;20198;-78
2022/12/29 10:37:56;;;;;;;2.08;1.80;;;14.50;95.00;;;;;;5010215;28;20634;-78
2022/12/29 10:40:51;;;;;;;4.88;1.50;;;14.60;95.10;;;;;;5003607;28;20198;-80
2022/12/29 10:43:28;;;;;;;2.35;1.50;;;14.70;95.00;;;;;;5010151;28;20597;-79
2022/12/29 10:46:02;;;;;;;3.53;1.60;;;14.60;95.00;;;;;;5009886;28;20655;-79
2022/12/29 10:48:34;;;;;;;2.15;1.88;;;14.90;94.80;;;;;;5006951;28;20186;-79
2022/12/29 10:51:03;;;;;;;1.42;1.33;;;15.00;94.20;;;;;;5009896;28;20182;-80
2022/12/29 10:53:51;;;;;;;1.50;1.40;;;16.30;93.60;;;;;;5013616;28;20651;-79
2022/12/29 10:56:25;;;;;;;4.03;1.40;;;16.60;92.80;;;;;;5008061;28;20187;-79
2022/12/29 10:58:54;;;;;;;3.75;1.48;;;17.20;91.80;;;;;;5010810;28;20183;-80
2022/12/29 11:01:20;;;;;;;3.55;1.75;;;17.50;90.10;;;;;;5007881;28;20214;-80
2022/12/29 11:04:20;;;;;;;3.13;1.40;;;18.10;88.60;;;;;;5004733;28;20188;-79
2022/12/29 11:06:46;;;;;;;3.00;1.50;;;17.90;87.90;;;;;;5001268;28;20438;-79
2022/12/29 11:09:18;;;;;;;3.03;1.40;;;17.60;88.90;;;;;;5008651;28;20261;-79
2022/12/29 11:11:43;;;;;;;2.42;1.40;;;17.10;90.00;;;;;;5008486;28;20679;-79
2022/12/29 11:14:19;;;;;;;2.50;1.60;;;16.90;90.10;;;;;;5009881;28;20189;-79
2022/12/29 11:17:02;;;;;;;1.70;1.60;;;16.30;90.30;;;;;;5001830;28;20195;-79
2022/12/29 11:19:31;;;;;;;3.03;1.40;;;16.10;91.00;;;;;;5001944;28;20229;-79
2022/12/29 11:22:26;;;;;;;1.75;1.20;;;15.90;91.60;;;;;;5009639;28;20217;-78
2022/12/29 11:24:53;;;;;;;2.58;1.50;;;15.80;91.90;;;;;;4998399;28;20290;-79
2022/12/29 11:27:24;;;;;;;2.40;1.60;;;15.90;92.00;;;;;;5009219;28;20236;-79
2022/12/29 11:29:52;;;;;;;1.60;1.50;;;15.40;92.50;;;;;;5013650;28;20623;-79
2022/12/29 11:32:18;;;;;;;1.92;1.40;;;15.60;92.30;;;;;;5013862;28;20206;-79
2022/12/29 11:34:45;;;;;;;2.13;1.52;;;15.90;92.60;;;;;;5008988;28;20219;-78
2022/12/29 11:37:13;;;;;;;3.03;2.08;;;15.60;92.60;;;;;;5017014;28;20261;-79
2022/12/29 11:40:04;;;;;;;3.50;1.50;;;15.70;92.90;;;;;;5007801;28;20187;-79
2022/12/29 11:42:36;;;;;;;2.97;1.70;;;15.40;93.50;;;;;;5011945;28;20207;-80
2022/12/29 11:45:18;;;;;;;2.90;1.63;;;15.60;94.70;;;;;;5012858;28;20224;-79
2022/12/29 11:47:47;;;;;;;1.77;1.67;;;15.10;94.80;;;;;;5003838;28;20183;-79
2022/12/29 11:50:23;;;;;;;2.33;1.80;;;15.40;96.20;;;;;;5013748;28;20237;-79
2022/12/29 11:52:57;;;;;;;3.50;1.80;;;14.90;97.20;;;;;;5012728;28;20203;-79
2022/12/29 11:55:26;;;;;;;3.05;1.95;;;14.90;97.40;;;;;;5008771;28;20242;-79
2022/12/29 11:57:54;;;;;;;2.05;1.80;;;14.60;98.20;;;;;;5007457;28;20193;-79
2022/12/29 12:00:25;;;;;;;3.65;1.70;;;14.70;97.90;;;;;;5012746;28;20201;-79
2022/12/29 12:02:57;;;;;;;2.00;1.55;;;14.70;97.60;;;;;;5027645;28;20313;-79
2022/12/29 12:05:28;;;;;;;2.00;1.55;;;14.40;98.30;;;;;;5011750;28;20554;-79
2022/12/29 12:08:21;;;;;;;2.90;1.90;;;14.40;98.80;;;;;;5011275;28;20187;-79
2022/12/29 12:11:02;;;;;;;2.63;2.05;;;14.40;98.90;;;;;;5009628;28;20675;-79
2022/12/29 12:13:34;;;;;;;1.90;1.67;;;14.20;98.40;;;;;;5013032;28;20639;-79
2022/12/29 12:16:07;;;;;;;3.70;1.85;;;14.00;98.40;;;;;;5006342;28;20198;-79
2022/12/29 12:19:11;;;;;;;1.58;1.30;;;14.20;98.10;;;;;;5008938;28;20226;-79
2022/12/29 12:21:43;;;;;;;1.60;1.50;;;14.40;97.70;;;;;;4996297;28;20238;-80
2022/12/29 12:24:33;;;;;;;1.77;1.20;;;13.90;97.60;;;;;;5007586;28;20195;-79
2022/12/29 12:27:19;;;;;;;1.80;1.23;;;14.10;97.50;;;;;;5009875;28;20856;-78
2022/12/29 12:30:08;;;;;;;2.47;1.45;;;14.10;97.60;;;;;;5012400;28;20210;-78
2022/12/29 12:32:56;;;;;;;2.95;1.23;;;14.30;97.90;;;;;;5002182;28;20545;-79
2022/12/29 12:35:43;;;;;;;2.15;1.42;;;14.50;98.00;;;;;;5012855;28;20274;-79
2022/12/29 12:38:32;;;;;;;2.03;1.42;;;14.40;97.60;;;;;;5010584;28;20183;-79
2022/12/29 12:41:25;;;;;;;1.77;1.60;;;14.40;98.00;;;;;;5007151;28;20592;-78
2022/12/29 12:44:05;;;;;;;1.48;1.27;;;14.20;98.30;;;;;;5000555;28;20666;-79
2022/12/29 12:46:45;;;;;;;2.25;1.80;;;14.30;99.70;;;;;;5009536;28;20297;-79
2022/12/29 12:49:29;;;;;;;1.73;1.50;;;13.90;99.90;;;;;;5005068;28;20245;-78
2022/12/29 12:52:07;;;;;;;2.40;1.75;;;13.50;99.90;;;;;;5001000;28;20288;-79
2022/12/29 12:54:49;;;;;;;1.95;1.70;;;13.60;99.90;;;;;;5006939;28;20655;-79
2022/12/29 12:57:47;;;;;;;2.40;1.75;;;13.70;99.90;;;;;;5007129;28;20640;-78
2022/12/29 13:00:19;;;;;;;2.10;1.90;;;13.70;99.90;;;;;;5000874;28;20191;-79
2022/12/29 13:02:51;;;;;;;2.90;1.90;;;13.90;99.90;;;;;;5011328;28;20312;-78
2022/12/29 13:05:44;;;;;;;2.17;1.70;;;14.20;99.90;;;;;;5011290;28;20264;-79
2022/12/29 13:08:41;;;;;;;1.90;1.80;;;13.90;99.90;;;;;;5000559;28;20274;-79
2022/12/29 13:11:37;;;;;;;1.80;1.70;;;13.90;99.90;;;;;;5011222;28;20234;-79
2022/12/29 13:14:23;;;;;;;1.77;1.40;;;13.90;99.90;;;;;;5010084;28;20286;-79
2022/12/29 13:17:13;;;;;;;2.25;2.05;;;14.00;99.90;;;;;;5008990;28;20198;-79
2022/12/29 13:19:42;;;;;;;2.35;1.63;;;14.00;99.90;;;;;;5002546;28;20183;-79
2022/12/29 13:22:17;;;;;;;2.38;1.95;;;14.00;99.90;;;;;;5011128;28;20700;-79
2022/12/29 13:24:55;;;;;;;3.55;1.70;;;14.20;99.90;;;;;;5008001;28;20247;-78
2022/12/29 13:27:36;;;;;;;2.25;1.60;;;13.90;99.90;;;;;;5010249;28;20171;-79
2022/12/29 13:30:04;;;;;;;1.70;1.35;;;14.20;99.90;;;;;;5010765;28;20175;-79
2022/12/29 13:32:57;;;;;;;1.50;1.40;;;14.10;99.90;;;;;;5010147;28;20672;-78
2022/12/29 13:35:30;;;;;;;2.03;1.60;;;14.00;99.90;;;;;;5010942;28;20202;-79
2022/12/29 13:38:31;;;;;;;2.45;1.70;;;14.50;99.90;;;;;;5022333;28;20541;-79
2022/12/29 13:41:08;;;;;;;1.70;1.42;;;14.00;99.90;;;;;;5003397;28;20659;-79
2022/12/29 13:43:36;;;;;;;2.30;1.50;;;14.10;99.90;;;;;;5011268;28;20182;-79
2022/12/29 13:46:09;;;;;;;2.17;1.75;;;13.60;99.90;;;;;;5010079;28;20214;-78
2022/12/29 13:48:52;;;;;;;3.13;1.45;;;13.80;99.90;;;;;;5003871;28;20190;-79
2022/12/29 13:51:20;;;;;;;1.75;1.65;;;13.30;99.90;;;;;;5010486;28;20281;-79
2022/12/29 13:54:08;;;;;;;2.05;1.85;;;13.80;99.90;;;;;;5008306;28;20189;-79
2022/12/29 13:56:34;;;;;;;1.55;1.42;;;14.00;99.90;;;;;;4999333;28;20242;-78